sensor_id;sensor_type;location;lat;lon;timestamp;P1;durP1;ratioP1;P2;durP2;ratioP2
19828;SDS011;10075;50.924;4.396;2022-12-26T00:01:38;14.67;;;11.00;;
19828;SDS011;10075;50.924;4.396;2022-12-26T00:04:10;14.83;;;10.40;;
19828;SDS011;10075;50.924;4.396;2022-12-26T00:06:39;15.37;;;10.97;;
19828;SDS011;10075;50.924;4.396;2022-12-26T00:09:06;13.70;;;9.97;;
19828;SDS011;10075;50.924;4.396;2022-12-26T00:11:34;18.57;;;11.20;;
19828;SDS011;10075;50.924;4.396;2022-12-26T00:14:02;14.93;;;10.73;;
19828;SDS011;10075;50.924;4.396;2022-12-26T00:16:32;15.70;;;10.43;;
19828;SDS011;10075;50.924;4.396;2022-12-26T00:18:59;13.60;;;10.13;;
19828;SDS011;10075;50.924;4.396;2022-12-26T00:21:27;15.10;;;10.37;;
19828;SDS011;10075;50.924;4.396;2022-12-26T00:23:56;14.07;;;9.73;;
19828;SDS011;10075;50.924;4.396;2022-12-26T00:26:25;15.47;;;10.73;;
19828;SDS011;10075;50.924;4.396;2022-12-26T00:28:53;16.97;;;10.87;;
19828;SDS011;10075;50.924;4.396;2022-12-26T00:31:22;15.40;;;10.87;;
19828;SDS011;10075;50.924;4.396;2022-12-26T00:33:51;13.70;;;9.63;;
19828;SDS011;10075;50.924;4.396;2022-12-26T00:36:19;13.50;;;9.57;;
19828;SDS011;10075;50.924;4.396;2022-12-26T00:38:48;14.03;;;9.70;;
19828;SDS011;10075;50.924;4.396;2022-12-26T00:41:18;12.47;;;9.73;;
19828;SDS011;10075;50.924;4.396;2022-12-26T00:43:46;13.57;;;9.77;;
19828;SDS011;10075;50.924;4.396;2022-12-26T00:46:14;12.77;;;9.63;;
19828;SDS011;10075;50.924;4.396;2022-12-26T00:48:41;13.57;;;9.90;;
19828;SDS011;10075;50.924;4.396;2022-12-26T00:51:09;11.80;;;9.70;;
19828;SDS011;10075;50.924;4.396;2022-12-26T00:53:36;13.47;;;9.93;;
19828;SDS011;10075;50.924;4.396;2022-12-26T00:56:03;14.13;;;9.83;;
19828;SDS011;10075;50.924;4.396;2022-12-26T00:58:32;12.70;;;9.60;;
19828;SDS011;10075;50.924;4.396;2022-12-26T01:01:06;12.80;;;9.07;;
19828;SDS011;10075;50.924;4.396;2022-12-26T01:03:35;9.97;;;8.57;;
19828;SDS011;10075;50.924;4.396;2022-12-26T01:06:03;11.33;;;8.40;;
19828;SDS011;10075;50.924;4.396;2022-12-26T01:08:31;13.30;;;9.70;;
19828;SDS011;10075;50.924;4.396;2022-12-26T01:11:01;10.40;;;8.00;;
19828;SDS011;10075;50.924;4.396;2022-12-26T01:13:30;12.47;;;8.80;;
19828;SDS011;10075;50.924;4.396;2022-12-26T01:15:58;12.03;;;9.17;;
19828;SDS011;10075;50.924;4.396;2022-12-26T01:18:26;9.80;;;7.23;;
19828;SDS011;10075;50.924;4.396;2022-12-26T01:20:56;11.60;;;8.20;;
19828;SDS011;10075;50.924;4.396;2022-12-26T01:23:24;13.33;;;8.57;;
19828;SDS011;10075;50.924;4.396;2022-12-26T01:25:51;8.93;;;7.10;;
19828;SDS011;10075;50.924;4.396;2022-12-26T01:28:18;8.60;;;6.97;;
19828;SDS011;10075;50.924;4.396;2022-12-26T01:30:46;8.50;;;7.07;;
19828;SDS011;10075;50.924;4.396;2022-12-26T01:33:14;8.60;;;6.20;;
19828;SDS011;10075;50.924;4.396;2022-12-26T01:35:48;8.00;;;6.60;;
19828;SDS011;10075;50.924;4.396;2022-12-26T01:38:16;8.13;;;6.63;;
19828;SDS011;10075;50.924;4.396;2022-12-26T01:40:43;8.33;;;6.87;;
19828;SDS011;10075;50.924;4.396;2022-12-26T01:43:12;8.90;;;6.90;;
19828;SDS011;10075;50.924;4.396;2022-12-26T01:45:40;10.33;;;7.47;;
19828;SDS011;10075;50.924;4.396;2022-12-26T01:48:12;11.77;;;8.40;;
19828;SDS011;10075;50.924;4.396;2022-12-26T01:50:46;10.83;;;7.63;;
19828;SDS011;10075;50.924;4.396;2022-12-26T01:53:19;13.20;;;8.13;;
19828;SDS011;10075;50.924;4.396;2022-12-26T01:55:51;10.07;;;8.07;;
19828;SDS011;10075;50.924;4.396;2022-12-26T01:58:25;13.53;;;9.80;;
19828;SDS011;10075;50.924;4.396;2022-12-26T02:00:55;13.07;;;10.20;;
19828;SDS011;10075;50.924;4.396;2022-12-26T02:03:24;14.73;;;11.20;;
19828;SDS011;10075;50.924;4.396;2022-12-26T02:06:10;15.97;;;12.07;;
19828;SDS011;10075;50.924;4.396;2022-12-26T02:08:39;18.10;;;12.47;;
19828;SDS011;10075;50.924;4.396;2022-12-26T02:11:09;18.53;;;13.47;;
19828;SDS011;10075;50.924;4.396;2022-12-26T02:13:39;18.60;;;13.53;;
19828;SDS011;10075;50.924;4.396;2022-12-26T02:16:08;18.57;;;12.40;;
19828;SDS011;10075;50.924;4.396;2022-12-26T02:18:39;18.10;;;13.07;;
19828;SDS011;10075;50.924;4.396;2022-12-26T02:21:12;19.67;;;13.97;;
19828;SDS011;10075;50.924;4.396;2022-12-26T02:30:24;18.70;;;13.57;;
19828;SDS011;10075;50.924;4.396;2022-12-26T02:33:23;18.07;;;12.83;;
19828;SDS011;10075;50.924;4.396;2022-12-26T02:39:05;16.10;;;12.27;;
19828;SDS011;10075;50.924;4.396;2022-12-26T02:41:45;15.03;;;11.43;;
19828;SDS011;10075;50.924;4.396;2022-12-26T02:44:20;15.73;;;10.77;;
19828;SDS011;10075;50.924;4.396;2022-12-26T02:47:10;15.23;;;11.40;;
19828;SDS011;10075;50.924;4.396;2022-12-26T02:49:50;13.93;;;9.80;;
19828;SDS011;10075;50.924;4.396;2022-12-26T02:52:43;14.27;;;10.20;;
19828;SDS011;10075;50.924;4.396;2022-12-26T02:55:51;12.40;;;9.03;;
19828;SDS011;10075;50.924;4.396;2022-12-26T02:58:44;10.87;;;8.23;;
19828;SDS011;10075;50.924;4.396;2022-12-26T03:01:37;11.83;;;7.63;;
19828;SDS011;10075;50.924;4.396;2022-12-26T03:04:28;10.07;;;6.80;;
19828;SDS011;10075;50.924;4.396;2022-12-26T03:07:17;10.13;;;6.90;;
19828;SDS011;10075;50.924;4.396;2022-12-26T03:10:06;12.43;;;7.03;;
19828;SDS011;10075;50.924;4.396;2022-12-26T03:13:00;9.70;;;6.37;;
19828;SDS011;10075;50.924;4.396;2022-12-26T03:15:38;6.87;;;5.80;;
19828;SDS011;10075;50.924;4.396;2022-12-26T03:18:27;7.47;;;5.03;;
19828;SDS011;10075;50.924;4.396;2022-12-26T03:20:57;6.17;;;4.80;;
19828;SDS011;10075;50.924;4.396;2022-12-26T03:23:25;5.27;;;4.20;;
19828;SDS011;10075;50.924;4.396;2022-12-26T03:25:53;5.43;;;4.40;;
19828;SDS011;10075;50.924;4.396;2022-12-26T03:28:39;5.63;;;4.13;;
19828;SDS011;10075;50.924;4.396;2022-12-26T03:31:08;6.73;;;4.03;;
19828;SDS011;10075;50.924;4.396;2022-12-26T03:33:36;8.70;;;5.07;;
19828;SDS011;10075;50.924;4.396;2022-12-26T03:36:27;6.90;;;4.40;;
19828;SDS011;10075;50.924;4.396;2022-12-26T03:39:05;5.27;;;4.30;;
19828;SDS011;10075;50.924;4.396;2022-12-26T03:41:41;6.47;;;4.17;;
19828;SDS011;10075;50.924;4.396;2022-12-26T03:44:32;7.30;;;4.10;;
19828;SDS011;10075;50.924;4.396;2022-12-26T03:47:23;5.70;;;4.43;;
19828;SDS011;10075;50.924;4.396;2022-12-26T03:50:14;8.93;;;5.10;;
19828;SDS011;10075;50.924;4.396;2022-12-26T03:53:08;7.70;;;5.10;;
19828;SDS011;10075;50.924;4.396;2022-12-26T03:56:03;7.17;;;4.97;;
19828;SDS011;10075;50.924;4.396;2022-12-26T03:58:55;7.10;;;4.70;;
19828;SDS011;10075;50.924;4.396;2022-12-26T04:01:43;6.17;;;4.10;;
19828;SDS011;10075;50.924;4.396;2022-12-26T04:04:31;5.47;;;4.30;;
19828;SDS011;10075;50.924;4.396;2022-12-26T04:07:19;5.73;;;4.33;;
19828;SDS011;10075;50.924;4.396;2022-12-26T04:10:10;6.73;;;4.60;;
19828;SDS011;10075;50.924;4.396;2022-12-26T04:12:57;5.53;;;4.37;;
19828;SDS011;10075;50.924;4.396;2022-12-26T04:15:48;6.30;;;4.40;;
19828;SDS011;10075;50.924;4.396;2022-12-26T04:18:40;6.93;;;4.23;;
19828;SDS011;10075;50.924;4.396;2022-12-26T04:21:29;6.50;;;4.77;;
19828;SDS011;10075;50.924;4.396;2022-12-26T04:24:21;6.23;;;4.23;;
19828;SDS011;10075;50.924;4.396;2022-12-26T04:27:10;6.27;;;3.80;;
19828;SDS011;10075;50.924;4.396;2022-12-26T04:29:58;5.13;;;3.83;;
19828;SDS011;10075;50.924;4.396;2022-12-26T04:32:43;4.80;;;4.20;;
19828;SDS011;10075;50.924;4.396;2022-12-26T04:35:31;5.63;;;4.30;;
19828;SDS011;10075;50.924;4.396;2022-12-26T04:38:26;5.80;;;3.73;;
19828;SDS011;10075;50.924;4.396;2022-12-26T04:41:13;9.50;;;4.93;;
19828;SDS011;10075;50.924;4.396;2022-12-26T04:44:02;5.53;;;4.20;;
19828;SDS011;10075;50.924;4.396;2022-12-26T04:46:33;5.30;;;4.10;;
19828;SDS011;10075;50.924;4.396;2022-12-26T04:49:02;4.63;;;3.70;;
19828;SDS011;10075;50.924;4.396;2022-12-26T04:51:49;4.70;;;3.77;;
19828;SDS011;10075;50.924;4.396;2022-12-26T04:54:16;4.97;;;3.63;;
19828;SDS011;10075;50.924;4.396;2022-12-26T04:56:44;4.10;;;3.27;;
19828;SDS011;10075;50.924;4.396;2022-12-26T04:59:12;7.53;;;4.10;;
19828;SDS011;10075;50.924;4.396;2022-12-26T05:01:40;5.20;;;3.73;;
19828;SDS011;10075;50.924;4.396;2022-12-26T05:04:25;8.63;;;3.53;;
19828;SDS011;10075;50.924;4.396;2022-12-26T05:07:11;5.43;;;3.50;;
19828;SDS011;10075;50.924;4.396;2022-12-26T05:09:59;5.90;;;3.80;;
19828;SDS011;10075;50.924;4.396;2022-12-26T05:12:26;4.77;;;2.90;;
19828;SDS011;10075;50.924;4.396;2022-12-26T05:14:54;6.53;;;2.93;;
19828;SDS011;10075;50.924;4.396;2022-12-26T05:17:22;6.70;;;3.20;;
19828;SDS011;10075;50.924;4.396;2022-12-26T05:20:06;3.20;;;2.50;;
19828;SDS011;10075;50.924;4.396;2022-12-26T05:22:53;3.10;;;2.80;;
19828;SDS011;10075;50.924;4.396;2022-12-26T05:25:39;4.27;;;2.53;;
19828;SDS011;10075;50.924;4.396;2022-12-26T05:28:25;4.80;;;2.93;;
19828;SDS011;10075;50.924;4.396;2022-12-26T05:31:10;3.40;;;2.50;;
19828;SDS011;10075;50.924;4.396;2022-12-26T05:33:38;5.37;;;2.33;;
19828;SDS011;10075;50.924;4.396;2022-12-26T05:36:23;5.03;;;2.60;;
19828;SDS011;10075;50.924;4.396;2022-12-26T05:38:52;4.77;;;2.67;;
19828;SDS011;10075;50.924;4.396;2022-12-26T05:41:21;3.73;;;2.50;;
19828;SDS011;10075;50.924;4.396;2022-12-26T05:43:48;3.57;;;2.80;;
19828;SDS011;10075;50.924;4.396;2022-12-26T05:46:17;3.93;;;2.87;;
19828;SDS011;10075;50.924;4.396;2022-12-26T05:48:44;3.37;;;2.60;;
19828;SDS011;10075;50.924;4.396;2022-12-26T05:51:11;6.20;;;2.90;;
19828;SDS011;10075;50.924;4.396;2022-12-26T05:53:38;3.70;;;2.67;;
19828;SDS011;10075;50.924;4.396;2022-12-26T05:56:07;4.60;;;3.00;;
19828;SDS011;10075;50.924;4.396;2022-12-26T05:58:37;4.33;;;2.97;;
19828;SDS011;10075;50.924;4.396;2022-12-26T06:01:06;3.60;;;3.00;;
19828;SDS011;10075;50.924;4.396;2022-12-26T06:03:36;4.23;;;2.90;;
19828;SDS011;10075;50.924;4.396;2022-12-26T06:06:04;8.17;;;2.93;;
19828;SDS011;10075;50.924;4.396;2022-12-26T06:08:32;5.70;;;2.97;;
19828;SDS011;10075;50.924;4.396;2022-12-26T06:11:01;3.43;;;2.90;;
19828;SDS011;10075;50.924;4.396;2022-12-26T06:13:30;3.77;;;2.73;;
19828;SDS011;10075;50.924;4.396;2022-12-26T06:15:57;4.83;;;2.90;;
19828;SDS011;10075;50.924;4.396;2022-12-26T06:18:24;3.03;;;2.63;;
19828;SDS011;10075;50.924;4.396;2022-12-26T06:20:53;4.50;;;3.13;;
19828;SDS011;10075;50.924;4.396;2022-12-26T06:23:20;5.17;;;2.63;;
19828;SDS011;10075;50.924;4.396;2022-12-26T06:25:54;3.40;;;2.50;;
19828;SDS011;10075;50.924;4.396;2022-12-26T06:28:22;3.07;;;2.10;;
19828;SDS011;10075;50.924;4.396;2022-12-26T06:30:50;3.77;;;2.37;;
19828;SDS011;10075;50.924;4.396;2022-12-26T06:33:17;3.13;;;2.20;;
19828;SDS011;10075;50.924;4.396;2022-12-26T06:35:45;5.23;;;2.87;;
19828;SDS011;10075;50.924;4.396;2022-12-26T06:38:13;2.90;;;1.87;;
19828;SDS011;10075;50.924;4.396;2022-12-26T06:40:40;3.43;;;1.43;;
19828;SDS011;10075;50.924;4.396;2022-12-26T06:43:08;4.63;;;2.10;;
19828;SDS011;10075;50.924;4.396;2022-12-26T06:45:35;3.63;;;1.60;;
19828;SDS011;10075;50.924;4.396;2022-12-26T06:48:02;5.53;;;1.93;;
19828;SDS011;10075;50.924;4.396;2022-12-26T06:50:30;3.70;;;1.63;;
19828;SDS011;10075;50.924;4.396;2022-12-26T06:52:57;3.00;;;1.57;;
19828;SDS011;10075;50.924;4.396;2022-12-26T06:55:25;2.70;;;1.57;;
19828;SDS011;10075;50.924;4.396;2022-12-26T06:57:52;4.90;;;1.20;;
19828;SDS011;10075;50.924;4.396;2022-12-26T07:00:20;2.37;;;1.57;;
19828;SDS011;10075;50.924;4.396;2022-12-26T07:02:50;2.93;;;1.53;;
19828;SDS011;10075;50.924;4.396;2022-12-26T07:05:17;4.57;;;1.27;;
19828;SDS011;10075;50.924;4.396;2022-12-26T07:07:48;3.27;;;1.30;;
19828;SDS011;10075;50.924;4.396;2022-12-26T07:10:16;2.87;;;1.80;;
19828;SDS011;10075;50.924;4.396;2022-12-26T07:12:45;2.40;;;1.50;;
19828;SDS011;10075;50.924;4.396;2022-12-26T07:15:13;2.30;;;1.10;;
19828;SDS011;10075;50.924;4.396;2022-12-26T07:17:41;3.70;;;1.60;;
19828;SDS011;10075;50.924;4.396;2022-12-26T07:20:08;2.67;;;1.20;;
19828;SDS011;10075;50.924;4.396;2022-12-26T07:22:36;4.00;;;1.20;;
19828;SDS011;10075;50.924;4.396;2022-12-26T07:25:03;5.73;;;1.30;;
19828;SDS011;10075;50.924;4.396;2022-12-26T07:27:31;5.30;;;1.37;;
19828;SDS011;10075;50.924;4.396;2022-12-26T07:29:59;4.30;;;1.30;;
19828;SDS011;10075;50.924;4.396;2022-12-26T07:32:27;4.60;;;1.30;;
19828;SDS011;10075;50.924;4.396;2022-12-26T07:34:54;4.43;;;1.40;;
19828;SDS011;10075;50.924;4.396;2022-12-26T07:37:21;3.90;;;1.43;;
19828;SDS011;10075;50.924;4.396;2022-12-26T07:39:48;3.83;;;1.20;;
19828;SDS011;10075;50.924;4.396;2022-12-26T07:42:15;2.23;;;1.20;;
19828;SDS011;10075;50.924;4.396;2022-12-26T07:44:42;1.73;;;1.00;;
19828;SDS011;10075;50.924;4.396;2022-12-26T07:47:11;2.97;;;1.30;;
19828;SDS011;10075;50.924;4.396;2022-12-26T07:49:38;5.03;;;1.50;;
19828;SDS011;10075;50.924;4.396;2022-12-26T07:52:05;3.40;;;1.50;;
19828;SDS011;10075;50.924;4.396;2022-12-26T07:54:32;4.23;;;1.60;;
19828;SDS011;10075;50.924;4.396;2022-12-26T07:56:59;4.10;;;1.70;;
19828;SDS011;10075;50.924;4.396;2022-12-26T07:59:26;3.17;;;1.80;;
19828;SDS011;10075;50.924;4.396;2022-12-26T08:01:53;3.63;;;1.30;;
19828;SDS011;10075;50.924;4.396;2022-12-26T08:04:23;7.17;;;1.90;;
19828;SDS011;10075;50.924;4.396;2022-12-26T08:06:50;3.60;;;1.17;;
19828;SDS011;10075;50.924;4.396;2022-12-26T08:09:17;3.50;;;1.53;;
19828;SDS011;10075;50.924;4.396;2022-12-26T08:11:44;2.27;;;1.20;;
19828;SDS011;10075;50.924;4.396;2022-12-26T08:14:12;4.17;;;1.40;;
19828;SDS011;10075;50.924;4.396;2022-12-26T08:16:40;5.07;;;1.20;;
19828;SDS011;10075;50.924;4.396;2022-12-26T08:19:08;4.80;;;1.50;;
19828;SDS011;10075;50.924;4.396;2022-12-26T08:21:36;4.53;;;1.50;;
19828;SDS011;10075;50.924;4.396;2022-12-26T08:24:04;2.57;;;1.30;;
19828;SDS011;10075;50.924;4.396;2022-12-26T08:26:31;3.73;;;1.40;;
19828;SDS011;10075;50.924;4.396;2022-12-26T08:28:58;3.73;;;1.23;;
19828;SDS011;10075;50.924;4.396;2022-12-26T08:31:26;4.60;;;1.87;;
19828;SDS011;10075;50.924;4.396;2022-12-26T08:33:54;5.37;;;1.40;;
19828;SDS011;10075;50.924;4.396;2022-12-26T08:36:22;4.33;;;1.40;;
19828;SDS011;10075;50.924;4.396;2022-12-26T08:38:51;5.83;;;1.43;;
19828;SDS011;10075;50.924;4.396;2022-12-26T08:41:19;4.30;;;1.63;;
19828;SDS011;10075;50.924;4.396;2022-12-26T08:43:49;9.13;;;1.50;;
19828;SDS011;10075;50.924;4.396;2022-12-26T08:46:17;5.30;;;1.90;;
19828;SDS011;10075;50.924;4.396;2022-12-26T08:48:46;3.87;;;1.40;;
19828;SDS011;10075;50.924;4.396;2022-12-26T08:51:14;7.60;;;1.50;;
19828;SDS011;10075;50.924;4.396;2022-12-26T08:53:43;3.53;;;1.40;;
19828;SDS011;10075;50.924;4.396;2022-12-26T08:56:13;4.43;;;1.27;;
19828;SDS011;10075;50.924;4.396;2022-12-26T08:58:42;7.23;;;1.80;;
19828;SDS011;10075;50.924;4.396;2022-12-26T09:01:10;4.27;;;1.40;;
19828;SDS011;10075;50.924;4.396;2022-12-26T09:03:38;5.77;;;1.27;;
19828;SDS011;10075;50.924;4.396;2022-12-26T09:06:06;5.97;;;1.43;;
19828;SDS011;10075;50.924;4.396;2022-12-26T09:08:34;8.63;;;1.57;;
19828;SDS011;10075;50.924;4.396;2022-12-26T09:11:03;4.13;;;1.30;;
19828;SDS011;10075;50.924;4.396;2022-12-26T09:13:32;8.20;;;1.30;;
19828;SDS011;10075;50.924;4.396;2022-12-26T09:16:06;4.80;;;1.40;;
19828;SDS011;10075;50.924;4.396;2022-12-26T09:18:35;4.17;;;1.23;;
19828;SDS011;10075;50.924;4.396;2022-12-26T09:21:03;7.10;;;1.73;;
19828;SDS011;10075;50.924;4.396;2022-12-26T09:23:31;4.73;;;1.47;;
19828;SDS011;10075;50.924;4.396;2022-12-26T09:26:03;6.90;;;1.77;;
19828;SDS011;10075;50.924;4.396;2022-12-26T09:28:33;7.77;;;1.60;;
19828;SDS011;10075;50.924;4.396;2022-12-26T09:31:01;5.60;;;1.90;;
19828;SDS011;10075;50.924;4.396;2022-12-26T09:33:30;8.33;;;2.13;;
19828;SDS011;10075;50.924;4.396;2022-12-26T09:36:02;5.27;;;1.70;;
19828;SDS011;10075;50.924;4.396;2022-12-26T09:38:31;6.90;;;1.63;;
19828;SDS011;10075;50.924;4.396;2022-12-26T09:41:03;5.37;;;1.67;;
19828;SDS011;10075;50.924;4.396;2022-12-26T09:43:47;8.23;;;2.23;;
19828;SDS011;10075;50.924;4.396;2022-12-26T09:46:26;6.43;;;1.60;;
19828;SDS011;10075;50.924;4.396;2022-12-26T09:48:58;7.93;;;1.97;;
19828;SDS011;10075;50.924;4.396;2022-12-26T09:51:28;10.47;;;2.50;;
19828;SDS011;10075;50.924;4.396;2022-12-26T09:53:58;9.17;;;1.80;;
19828;SDS011;10075;50.924;4.396;2022-12-26T09:56:29;6.53;;;1.70;;
19828;SDS011;10075;50.924;4.396;2022-12-26T09:59:01;3.70;;;1.73;;
19828;SDS011;10075;50.924;4.396;2022-12-26T10:01:33;6.70;;;1.80;;
19828;SDS011;10075;50.924;4.396;2022-12-26T10:04:03;5.70;;;2.37;;
19828;SDS011;10075;50.924;4.396;2022-12-26T10:06:35;6.07;;;2.17;;
19828;SDS011;10075;50.924;4.396;2022-12-26T10:09:11;8.47;;;2.57;;
19828;SDS011;10075;50.924;4.396;2022-12-26T10:11:51;10.73;;;3.23;;
19828;SDS011;10075;50.924;4.396;2022-12-26T10:14:30;6.97;;;1.83;;
19828;SDS011;10075;50.924;4.396;2022-12-26T10:17:08;6.07;;;2.43;;
19828;SDS011;10075;50.924;4.396;2022-12-26T10:19:43;5.43;;;2.37;;
19828;SDS011;10075;50.924;4.396;2022-12-26T10:25:27;7.63;;;2.37;;
19828;SDS011;10075;50.924;4.396;2022-12-26T10:28:02;5.73;;;2.50;;
19828;SDS011;10075;50.924;4.396;2022-12-26T10:30:36;4.00;;;2.13;;
19828;SDS011;10075;50.924;4.396;2022-12-26T10:33:08;9.17;;;2.57;;
19828;SDS011;10075;50.924;4.396;2022-12-26T10:35:40;9.57;;;3.17;;
19828;SDS011;10075;50.924;4.396;2022-12-26T10:38:10;4.43;;;2.50;;
19828;SDS011;10075;50.924;4.396;2022-12-26T10:40:42;9.00;;;2.13;;
19828;SDS011;10075;50.924;4.396;2022-12-26T10:43:19;6.47;;;2.40;;
19828;SDS011;10075;50.924;4.396;2022-12-26T10:45:54;7.37;;;2.53;;
19828;SDS011;10075;50.924;4.396;2022-12-26T10:48:36;6.13;;;2.37;;
19828;SDS011;10075;50.924;4.396;2022-12-26T10:51:03;8.13;;;2.67;;
19828;SDS011;10075;50.924;4.396;2022-12-26T10:53:30;7.47;;;2.63;;
19828;SDS011;10075;50.924;4.396;2022-12-26T10:55:59;8.93;;;2.50;;
19828;SDS011;10075;50.924;4.396;2022-12-26T10:58:27;4.80;;;2.10;;
19828;SDS011;10075;50.924;4.396;2022-12-26T11:00:58;8.70;;;1.50;;
19828;SDS011;10075;50.924;4.396;2022-12-26T11:03:57;4.23;;;0.90;;
19828;SDS011;10075;50.924;4.396;2022-12-26T11:06:27;3.80;;;0.90;;
19828;SDS011;10075;50.924;4.396;2022-12-26T11:08:57;4.97;;;1.10;;
19828;SDS011;10075;50.924;4.396;2022-12-26T11:11:26;5.00;;;1.20;;
19828;SDS011;10075;50.924;4.396;2022-12-26T11:14:22;6.50;;;1.10;;
19828;SDS011;10075;50.924;4.396;2022-12-26T11:17:01;4.07;;;1.00;;
19828;SDS011;10075;50.924;4.396;2022-12-26T11:19:32;6.67;;;1.60;;
19828;SDS011;10075;50.924;4.396;2022-12-26T11:22:19;7.70;;;1.57;;
19828;SDS011;10075;50.924;4.396;2022-12-26T11:25:02;6.67;;;1.30;;
19828;SDS011;10075;50.924;4.396;2022-12-26T11:27:37;7.17;;;1.50;;
19828;SDS011;10075;50.924;4.396;2022-12-26T11:30:13;8.07;;;1.43;;
19828;SDS011;10075;50.924;4.396;2022-12-26T11:32:45;7.87;;;2.00;;
19828;SDS011;10075;50.924;4.396;2022-12-26T11:35:15;5.80;;;1.60;;
19828;SDS011;10075;50.924;4.396;2022-12-26T11:37:44;11.80;;;1.80;;
19828;SDS011;10075;50.924;4.396;2022-12-26T11:40:19;9.33;;;1.23;;
19828;SDS011;10075;50.924;4.396;2022-12-26T11:42:49;8.23;;;1.90;;
19828;SDS011;10075;50.924;4.396;2022-12-26T11:45:22;5.73;;;1.60;;
19828;SDS011;10075;50.924;4.396;2022-12-26T11:47:52;4.77;;;1.53;;
19828;SDS011;10075;50.924;4.396;2022-12-26T11:50:21;11.97;;;2.30;;
19828;SDS011;10075;50.924;4.396;2022-12-26T11:52:52;3.73;;;1.53;;
19828;SDS011;10075;50.924;4.396;2022-12-26T11:55:31;6.80;;;2.03;;
19828;SDS011;10075;50.924;4.396;2022-12-26T11:58:01;10.37;;;2.30;;
19828;SDS011;10075;50.924;4.396;2022-12-26T12:00:41;5.70;;;1.70;;
19828;SDS011;10075;50.924;4.396;2022-12-26T12:03:12;7.70;;;1.67;;
19828;SDS011;10075;50.924;4.396;2022-12-26T12:05:44;7.90;;;2.07;;
19828;SDS011;10075;50.924;4.396;2022-12-26T12:08:21;5.93;;;1.30;;
19828;SDS011;10075;50.924;4.396;2022-12-26T12:11:01;8.63;;;1.63;;
19828;SDS011;10075;50.924;4.396;2022-12-26T12:13:44;8.87;;;1.60;;
19828;SDS011;10075;50.924;4.396;2022-12-26T12:19:25;6.07;;;1.23;;
19828;SDS011;10075;50.924;4.396;2022-12-26T12:22:09;7.90;;;1.57;;
19828;SDS011;10075;50.924;4.396;2022-12-26T12:24:51;8.77;;;1.70;;
19828;SDS011;10075;50.924;4.396;2022-12-26T12:27:28;7.43;;;1.70;;
19828;SDS011;10075;50.924;4.396;2022-12-26T12:32:48;10.90;;;2.20;;
19828;SDS011;10075;50.924;4.396;2022-12-26T12:35:40;5.20;;;1.47;;
19828;SDS011;10075;50.924;4.396;2022-12-26T12:38:23;4.90;;;1.33;;
19828;SDS011;10075;50.924;4.396;2022-12-26T12:40:56;8.87;;;1.97;;
19828;SDS011;10075;50.924;4.396;2022-12-26T12:43:42;9.43;;;1.90;;
19828;SDS011;10075;50.924;4.396;2022-12-26T12:46:15;6.13;;;1.70;;
19828;SDS011;10075;50.924;4.396;2022-12-26T12:48:54;9.63;;;1.67;;
19828;SDS011;10075;50.924;4.396;2022-12-26T12:51:35;6.40;;;1.47;;
19828;SDS011;10075;50.924;4.396;2022-12-26T12:54:17;6.50;;;1.83;;
19828;SDS011;10075;50.924;4.396;2022-12-26T12:57:12;9.17;;;1.80;;
19828;SDS011;10075;50.924;4.396;2022-12-26T12:59:49;11.23;;;2.00;;
19828;SDS011;10075;50.924;4.396;2022-12-26T13:02:27;9.57;;;2.20;;
19828;SDS011;10075;50.924;4.396;2022-12-26T13:04:58;7.17;;;1.77;;
19828;SDS011;10075;50.924;4.396;2022-12-26T13:07:33;7.20;;;1.97;;
19828;SDS011;10075;50.924;4.396;2022-12-26T13:10:05;4.77;;;1.43;;
19828;SDS011;10075;50.924;4.396;2022-12-26T13:12:40;9.60;;;1.90;;
19828;SDS011;10075;50.924;4.396;2022-12-26T13:15:14;6.07;;;1.70;;
19828;SDS011;10075;50.924;4.396;2022-12-26T13:17:50;9.03;;;1.80;;
19828;SDS011;10075;50.924;4.396;2022-12-26T13:20:24;4.23;;;1.53;;
19828;SDS011;10075;50.924;4.396;2022-12-26T13:22:57;6.33;;;1.80;;
19828;SDS011;10075;50.924;4.396;2022-12-26T13:25:46;6.13;;;1.70;;
19828;SDS011;10075;50.924;4.396;2022-12-26T13:28:18;9.10;;;1.60;;
19828;SDS011;10075;50.924;4.396;2022-12-26T13:30:51;6.70;;;1.60;;
19828;SDS011;10075;50.924;4.396;2022-12-26T13:33:18;8.37;;;1.83;;
19828;SDS011;10075;50.924;4.396;2022-12-26T13:35:50;8.10;;;2.03;;
19828;SDS011;10075;50.924;4.396;2022-12-26T13:38:21;3.87;;;1.30;;
19828;SDS011;10075;50.924;4.396;2022-12-26T13:40:50;7.73;;;2.10;;
19828;SDS011;10075;50.924;4.396;2022-12-26T13:46:35;11.90;;;1.70;;
19828;SDS011;10075;50.924;4.396;2022-12-26T13:49:25;8.83;;;1.63;;
19828;SDS011;10075;50.924;4.396;2022-12-26T13:58:21;8.97;;;1.80;;
19828;SDS011;10075;50.924;4.396;2022-12-26T14:00:59;11.00;;;1.93;;
19828;SDS011;10075;50.924;4.396;2022-12-26T14:03:35;7.90;;;1.43;;
19828;SDS011;10075;50.924;4.396;2022-12-26T14:09:14;9.70;;;1.70;;
19828;SDS011;10075;50.924;4.396;2022-12-26T14:12:10;8.23;;;1.67;;
19828;SDS011;10075;50.924;4.396;2022-12-26T14:15:02;10.63;;;1.33;;
19828;SDS011;10075;50.924;4.396;2022-12-26T14:17:46;11.33;;;1.57;;
19828;SDS011;10075;50.924;4.396;2022-12-26T14:20:22;9.83;;;1.70;;
19828;SDS011;10075;50.924;4.396;2022-12-26T14:23:02;10.40;;;2.37;;
19828;SDS011;10075;50.924;4.396;2022-12-26T14:25:44;8.90;;;1.80;;
19828;SDS011;10075;50.924;4.396;2022-12-26T14:28:20;9.17;;;2.00;;
19828;SDS011;10075;50.924;4.396;2022-12-26T14:30:56;8.40;;;1.87;;
19828;SDS011;10075;50.924;4.396;2022-12-26T14:33:34;6.23;;;2.03;;
19828;SDS011;10075;50.924;4.396;2022-12-26T14:36:12;6.97;;;1.53;;
19828;SDS011;10075;50.924;4.396;2022-12-26T14:38:49;8.77;;;1.87;;
19828;SDS011;10075;50.924;4.396;2022-12-26T14:41:20;6.53;;;1.43;;
19828;SDS011;10075;50.924;4.396;2022-12-26T14:44:12;9.97;;;1.30;;
19828;SDS011;10075;50.924;4.396;2022-12-26T14:46:59;9.90;;;1.87;;
19828;SDS011;10075;50.924;4.396;2022-12-26T14:49:35;9.80;;;1.60;;
19828;SDS011;10075;50.924;4.396;2022-12-26T14:54:57;7.03;;;1.93;;
19828;SDS011;10075;50.924;4.396;2022-12-26T14:57:34;8.30;;;1.77;;
19828;SDS011;10075;50.924;4.396;2022-12-26T15:00:23;12.07;;;2.80;;
19828;SDS011;10075;50.924;4.396;2022-12-26T15:03:12;7.67;;;1.70;;
19828;SDS011;10075;50.924;4.396;2022-12-26T15:06:03;10.83;;;2.03;;
19828;SDS011;10075;50.924;4.396;2022-12-26T15:08:55;3.83;;;1.70;;
19828;SDS011;10075;50.924;4.396;2022-12-26T15:11:44;8.13;;;1.30;;
19828;SDS011;10075;50.924;4.396;2022-12-26T15:17:40;7.80;;;1.73;;
19828;SDS011;10075;50.924;4.396;2022-12-26T15:20:28;9.00;;;1.60;;
19828;SDS011;10075;50.924;4.396;2022-12-26T15:26:27;7.77;;;1.90;;
19828;SDS011;10075;50.924;4.396;2022-12-26T15:29:19;6.70;;;1.53;;
19828;SDS011;10075;50.924;4.396;2022-12-26T15:32:03;5.80;;;1.77;;
19828;SDS011;10075;50.924;4.396;2022-12-26T15:40:41;9.63;;;1.90;;
19828;SDS011;10075;50.924;4.396;2022-12-26T15:43:17;6.47;;;2.47;;
19828;SDS011;10075;50.924;4.396;2022-12-26T15:45:55;9.50;;;1.70;;
19828;SDS011;10075;50.924;4.396;2022-12-26T15:48:34;8.90;;;1.70;;
19828;SDS011;10075;50.924;4.396;2022-12-26T15:51:16;7.17;;;2.17;;
19828;SDS011;10075;50.924;4.396;2022-12-26T15:53:52;8.27;;;2.00;;
19828;SDS011;10075;50.924;4.396;2022-12-26T15:56:37;6.27;;;2.20;;
19828;SDS011;10075;50.924;4.396;2022-12-26T15:59:30;10.30;;;2.40;;
19828;SDS011;10075;50.924;4.396;2022-12-26T16:02:09;9.17;;;3.40;;
19828;SDS011;10075;50.924;4.396;2022-12-26T16:04:39;10.27;;;3.53;;
19828;SDS011;10075;50.924;4.396;2022-12-26T16:07:19;9.00;;;2.90;;
19828;SDS011;10075;50.924;4.396;2022-12-26T16:09:54;7.87;;;2.43;;
19828;SDS011;10075;50.924;4.396;2022-12-26T16:12:23;6.30;;;2.80;;
19828;SDS011;10075;50.924;4.396;2022-12-26T16:14:59;11.00;;;3.23;;